Time;durP1;ratioP1;P1;durP2;ratioP2;P2;SDS_P1;SDS_P2;PMS_P1;PMS_P2;Temp;Humidity;BMP_temperature;BMP_pressure;BME280_temperature;BME280_humidity;BME280_pressure;Samples;Min_cycle;Max_cycle;Signal;HPM_P1;HPM_P2
2023/06/09 00:00:56;;;;;;;11.50;5.30;;;15.80;99.90;;;;;;4968125;28;20287;-74
2023/06/09 00:03:25;;;;;;;17.13;6.57;;;15.80;99.90;;;;;;4961605;28;20252;-73
2023/06/09 00:05:53;;;;;;;16.38;5.28;;;15.80;99.90;;;;;;4968126;28;20292;-73
2023/06/09 00:08:20;;;;;;;12.32;5.93;;;15.80;99.90;;;;;;4971338;28;20573;-74
2023/06/09 00:10:47;;;;;;;19.75;6.30;;;15.80;99.90;;;;;;4963617;28;20290;-74
2023/06/09 00:13:15;;;;;;;16.00;6.75;;;15.80;99.90;;;;;;4971806;28;20223;-72
2023/06/09 00:15:42;;;;;;;12.38;5.20;;;15.70;99.90;;;;;;4975062;28;20558;-74
2023/06/09 00:18:15;;;;;;;12.30;5.55;;;15.70;99.90;;;;;;4975288;28;20710;-72
2023/06/09 00:20:42;;;;;;;15.77;6.22;;;15.70;99.90;;;;;;4964687;28;20224;-72
2023/06/09 00:23:09;;;;;;;11.90;5.90;;;15.70;99.90;;;;;;4968590;28;20318;-73
2023/06/09 00:25:37;;;;;;;20.92;10.07;;;15.70;99.90;;;;;;4971015;28;20211;-73
2023/06/09 00:28:04;;;;;;;13.35;7.65;;;15.60;99.90;;;;;;4965440;28;20214;-75
2023/06/09 00:30:31;;;;;;;16.25;6.25;;;15.60;99.90;;;;;;4972289;28;20251;-73
2023/06/09 00:32:58;;;;;;;12.38;5.05;;;15.60;99.90;;;;;;4965723;28;20668;-74
2023/06/09 00:35:26;;;;;;;14.23;6.20;;;15.60;99.90;;;;;;4966722;28;20646;-72
2023/06/09 00:37:53;;;;;;;19.65;7.05;;;15.60;99.90;;;;;;4969762;28;20207;-73
2023/06/09 00:40:21;;;;;;;13.90;6.20;;;15.60;99.90;;;;;;4963750;28;20642;-72
2023/06/09 00:42:48;;;;;;;12.73;7.60;;;15.60;99.90;;;;;;4970984;28;20236;-74
2023/06/09 00:45:15;;;;;;;16.27;7.60;;;15.60;99.90;;;;;;4965202;28;21002;-73
2023/06/09 00:47:47;;;;;;;19.93;6.67;;;15.70;99.90;;;;;;4973278;28;20687;-74
2023/06/09 00:50:16;;;;;;;14.87;6.57;;;15.50;99.90;;;;;;4971496;28;20531;-74
2023/06/09 00:52:46;;;;;;;10.95;7.07;;;15.50;99.90;;;;;;4967395;28;20868;-73
2023/06/09 00:55:13;;;;;;;15.48;6.55;;;15.50;99.90;;;;;;4968410;28;20283;-75
2023/06/09 00:57:41;;;;;;;21.10;6.78;;;15.50;99.90;;;;;;4967876;28;20299;-73
2023/06/09 01:00:11;;;;;;;15.88;7.18;;;15.50;99.90;;;;;;4970400;28;20222;-75
2023/06/09 01:02:38;;;;;;;19.33;7.03;;;15.50;99.90;;;;;;4970390;28;20228;-74
2023/06/09 01:05:08;;;;;;;14.15;7.20;;;15.50;99.90;;;;;;4968174;28;20222;-75
2023/06/09 01:07:46;;;;;;;16.00;7.97;;;15.50;99.90;;;;;;4974817;28;20246;-72
2023/06/09 01:10:22;;;;;;;14.20;6.22;;;15.40;99.90;;;;;;4981958;28;20204;-71
2023/06/09 01:12:59;;;;;;;15.02;7.00;;;15.40;99.90;;;;;;4966338;28;20319;-73
2023/06/09 01:15:30;;;;;;;16.67;7.15;;;15.40;99.90;;;;;;4966173;28;20335;-74
2023/06/09 01:18:02;;;;;;;15.35;7.68;;;15.30;99.90;;;;;;4967831;28;20209;-72
2023/06/09 01:20:39;;;;;;;15.88;7.95;;;15.30;99.90;;;;;;4972787;28;20245;-72
2023/06/09 01:23:08;;;;;;;13.77;7.90;;;15.30;99.90;;;;;;4970623;28;20226;-75
2023/06/09 01:25:39;;;;;;;14.02;7.35;;;15.30;99.90;;;;;;4969191;28;20203;-73
2023/06/09 01:28:08;;;;;;;17.52;8.50;;;15.20;99.90;;;;;;4962579;28;20290;-74
2023/06/09 01:30:36;;;;;;;17.73;9.27;;;15.20;99.90;;;;;;4967945;28;20204;-73
2023/06/09 01:33:08;;;;;;;12.88;6.45;;;15.20;99.90;;;;;;4969576;28;20618;-75
2023/06/09 01:35:36;;;;;;;20.33;7.80;;;15.20;99.90;;;;;;4972665;28;20677;-73
2023/06/09 01:38:04;;;;;;;18.20;8.05;;;15.10;99.90;;;;;;4967719;28;20203;-73
2023/06/09 01:40:32;;;;;;;11.75;7.55;;;15.20;99.90;;;;;;4966259;28;20785;-74
2023/06/09 01:43:01;;;;;;;15.73;7.47;;;15.20;99.90;;;;;;4968588;28;20246;-75
2023/06/09 01:45:28;;;;;;;18.02;8.20;;;15.10;99.90;;;;;;4970895;28;20253;-74
2023/06/09 01:47:56;;;;;;;14.10;8.20;;;15.10;99.90;;;;;;4968170;28;20287;-73
2023/06/09 01:50:30;;;;;;;18.40;7.35;;;15.00;99.90;;;;;;4968593;28;20213;-72
2023/06/09 01:53:02;;;;;;;13.50;8.10;;;15.00;99.90;;;;;;4972720;28;20225;-72
2023/06/09 01:55:33;;;;;;;16.02;9.07;;;15.00;99.90;;;;;;4973974;28;20292;-72
2023/06/09 01:58:08;;;;;;;14.68;8.73;;;15.00;99.90;;;;;;4976881;28;20202;-73
2023/06/09 02:00:35;;;;;;;17.67;8.80;;;15.00;99.90;;;;;;4979570;28;20249;-74
2023/06/09 02:03:06;;;;;;;20.55;8.13;;;14.90;99.90;;;;;;4979464;28;20296;-73
2023/06/09 02:05:36;;;;;;;24.02;8.98;;;14.90;99.90;;;;;;4971291;28;20292;-76
2023/06/09 02:08:05;;;;;;;14.60;8.63;;;14.90;99.90;;;;;;4966767;28;20332;-74
2023/06/09 02:10:32;;;;;;;19.33;8.35;;;14.90;99.90;;;;;;4959780;28;20206;-72
2023/06/09 02:13:11;;;;;;;18.77;8.77;;;14.90;99.90;;;;;;4962953;28;20322;-75
2023/06/09 02:15:40;;;;;;;15.25;8.27;;;14.90;99.90;;;;;;4965039;28;20234;-74
2023/06/09 02:18:11;;;;;;;17.75;9.60;;;14.80;99.90;;;;;;4971410;28;20214;-73
2023/06/09 02:20:38;;;;;;;14.30;7.05;;;14.80;99.90;;;;;;4968003;28;20616;-74
2023/06/09 02:23:05;;;;;;;11.57;8.18;;;14.80;99.90;;;;;;4967232;28;20592;-73
2023/06/09 02:25:33;;;;;;;17.85;9.48;;;14.90;99.90;;;;;;4968895;28;20218;-73
2023/06/09 02:28:02;;;;;;;20.30;9.18;;;14.80;99.90;;;;;;4963188;28;20226;-73
2023/06/09 02:30:29;;;;;;;21.00;8.45;;;14.80;99.90;;;;;;4960591;28;20210;-73
2023/06/09 02:32:58;;;;;;;11.82;7.78;;;14.80;99.90;;;;;;4965836;28;20230;-73
2023/06/09 02:35:25;;;;;;;24.67;9.15;;;14.80;99.90;;;;;;4966692;28;20212;-73
2023/06/09 02:37:53;;;;;;;14.07;8.50;;;14.80;99.90;;;;;;4967021;28;20207;-72
2023/06/09 02:40:20;;;;;;;14.40;7.85;;;14.70;99.90;;;;;;4968344;28;20216;-73
2023/06/09 02:42:47;;;;;;;13.38;7.65;;;14.70;99.90;;;;;;4966590;28;20229;-73
2023/06/09 02:45:14;;;;;;;15.77;8.38;;;14.70;99.90;;;;;;4966712;28;21768;-71
2023/06/09 02:47:41;;;;;;;15.45;9.70;;;14.70;99.90;;;;;;4968479;28;20646;-72
2023/06/09 02:50:10;;;;;;;20.30;8.05;;;14.70;99.90;;;;;;4974560;28;20281;-72
2023/06/09 02:52:39;;;;;;;16.83;9.10;;;14.70;99.90;;;;;;4967961;28;20230;-73
2023/06/09 02:55:06;;;;;;;24.40;8.43;;;14.60;99.90;;;;;;4964574;28;20202;-72
2023/06/09 02:57:33;;;;;;;11.80;8.13;;;14.60;99.90;;;;;;4966822;28;20203;-74
2023/06/09 03:00:00;;;;;;;13.27;9.02;;;14.70;99.90;;;;;;4965047;28;20231;-75
2023/06/09 03:02:27;;;;;;;20.52;10.20;;;14.70;99.90;;;;;;4970857;28;20312;-74
2023/06/09 03:04:55;;;;;;;17.48;8.25;;;14.70;99.90;;;;;;4972333;28;20213;-74
2023/06/09 03:07:23;;;;;;;9.82;7.50;;;14.70;99.90;;;;;;4968550;28;20225;-73
2023/06/09 03:09:50;;;;;;;14.40;8.00;;;14.80;99.90;;;;;;4977682;28;20293;-73
2023/06/09 03:12:17;;;;;;;14.23;9.18;;;14.80;99.90;;;;;;4986064;28;20234;-73
2023/06/09 03:14:44;;;;;;;15.35;8.05;;;14.80;99.90;;;;;;4981880;28;20242;-73
2023/06/09 03:17:11;;;;;;;15.02;7.38;;;14.80;99.90;;;;;;4971203;28;20293;-73
2023/06/09 03:19:38;;;;;;;27.52;10.30;;;14.90;99.90;;;;;;4980052;28;20621;-72
2023/06/09 03:22:05;;;;;;;16.20;8.00;;;14.90;99.90;;;;;;4970504;28;20305;-71
2023/06/09 03:24:34;;;;;;;14.43;8.27;;;14.90;99.90;;;;;;4972365;28;20221;-73
2023/06/09 03:27:01;;;;;;;14.50;7.70;;;14.90;99.90;;;;;;4966965;28;20198;-73
2023/06/09 03:29:28;;;;;;;16.17;8.77;;;14.90;99.90;;;;;;4972832;28;20230;-72
2023/06/09 03:31:56;;;;;;;17.42;9.30;;;15.00;99.90;;;;;;4968776;28;20214;-74
2023/06/09 03:34:23;;;;;;;15.30;8.68;;;15.00;99.90;;;;;;4970933;28;20211;-73
2023/06/09 03:36:50;;;;;;;12.75;6.93;;;15.10;99.90;;;;;;4970177;28;20217;-74
2023/06/09 03:39:17;;;;;;;27.23;10.20;;;15.10;99.90;;;;;;4971523;28;20205;-73
2023/06/09 03:41:46;;;;;;;14.90;10.63;;;15.10;99.90;;;;;;4971986;28;20249;-74
2023/06/09 03:44:12;;;;;;;22.50;9.45;;;15.10;99.90;;;;;;4972777;28;20399;-74
2023/06/09 03:46:40;;;;;;;17.75;10.38;;;15.10;99.90;;;;;;4970531;28;20242;-76
2023/06/09 03:49:06;;;;;;;18.83;9.93;;;15.20;99.90;;;;;;4969019;28;20214;-74
2023/06/09 03:51:33;;;;;;;19.13;10.57;;;15.30;99.90;;;;;;4967500;28;20209;-73
2023/06/09 03:54:00;;;;;;;16.10;8.52;;;15.40;99.90;;;;;;4964951;28;20227;-75
2023/06/09 03:56:27;;;;;;;15.05;8.60;;;15.50;99.90;;;;;;4969173;28;20202;-74
2023/06/09 03:58:56;;;;;;;13.70;8.35;;;15.50;99.90;;;;;;4967757;28;20200;-73
2023/06/09 04:01:25;;;;;;;17.17;9.25;;;15.60;99.90;;;;;;4972657;28;20715;-75
2023/06/09 04:03:52;;;;;;;17.58;9.50;;;15.70;99.90;;;;;;4965620;28;20267;-74
2023/06/09 04:06:19;;;;;;;12.50;8.55;;;15.80;99.90;;;;;;4973431;28;20216;-72
2023/06/09 04:08:46;;;;;;;10.82;7.72;;;15.90;99.90;;;;;;4969568;28;20205;-74
2023/06/09 04:11:14;;;;;;;17.48;8.40;;;16.20;99.90;;;;;;4967154;28;20200;-73
2023/06/09 04:13:41;;;;;;;16.63;9.43;;;16.60;99.90;;;;;;4968601;28;20695;-73
2023/06/09 04:16:10;;;;;;;13.80;7.87;;;17.10;99.90;;;;;;4971006;28;20453;-74
2023/06/09 04:18:37;;;;;;;15.60;8.50;;;17.70;99.90;;;;;;4966685;28;20450;-72
2023/06/09 04:21:04;;;;;;;13.37;8.13;;;18.20;99.90;;;;;;4971613;28;20467;-74
2023/06/09 04:23:32;;;;;;;18.00;9.00;;;18.70;99.90;;;;;;4970624;28;20956;-74
2023/06/09 04:25:59;;;;;;;11.57;7.43;;;19.30;99.90;;;;;;4972648;28;20456;-73
2023/06/09 04:28:27;;;;;;;16.63;7.87;;;19.70;99.90;;;;;;4966457;28;20454;-74
2023/06/09 04:30:57;;;;;;;15.33;8.07;;;20.20;99.90;;;;;;4968437;28;20442;-72
2023/06/09 04:33:26;;;;;;;12.90;7.40;;;20.80;99.90;;;;;;4970042;28;20469;-75
2023/06/09 04:35:54;;;;;;;15.30;8.70;;;21.20;99.90;;;;;;4967625;28;20845;-73
2023/06/09 04:38:23;;;;;;;15.73;8.60;;;21.40;99.90;;;;;;4971964;28;20513;-75
2023/06/09 04:40:49;;;;;;;14.83;8.90;;;21.80;99.90;;;;;;4969266;28;20834;-73
2023/06/09 04:43:18;;;;;;;11.83;7.50;;;22.20;99.90;;;;;;4967843;28;20617;-74
2023/06/09 04:45:47;;;;;;;17.43;7.23;;;22.50;99.90;;;;;;4971085;28;20541;-74
2023/06/09 04:48:14;;;;;;;13.43;7.47;;;22.60;99.90;;;;;;4967768;28;20494;-72
2023/06/09 04:50:44;;;;;;;11.50;7.33;;;22.90;99.00;;;;;;4970001;28;20442;-71
2023/06/09 04:53:11;;;;;;;25.83;8.30;;;23.20;98.00;;;;;;4972667;28;20552;-71
2023/06/09 04:55:38;;;;;;;19.07;8.23;;;23.50;96.80;;;;;;4967759;28;20451;-72
2023/06/09 04:58:06;;;;;;;16.90;7.70;;;23.30;95.90;;;;;;4968835;28;20449;-73
2023/06/09 05:00:33;;;;;;;23.67;8.10;;;22.80;95.90;;;;;;4969059;28;20614;-73
2023/06/09 05:03:01;;;;;;;19.70;9.77;;;22.50;97.70;;;;;;4970832;28;20481;-72
2023/06/09 05:05:28;;;;;;;14.10;8.37;;;22.90;96.90;;;;;;4971210;28;20485;-72
2023/06/09 05:07:56;;;;;;;25.20;10.37;;;23.20;95.90;;;;;;4972875;28;20446;-73
2023/06/09 05:10:23;;;;;;;14.07;8.23;;;23.60;95.40;;;;;;4975921;28;20442;-73
2023/06/09 05:12:50;;;;;;;15.17;8.37;;;24.20;94.30;;;;;;4977821;28;20529;-72
2023/06/09 05:15:17;;;;;;;11.27;7.57;;;24.90;93.20;;;;;;4980654;28;20480;-71
2023/06/09 05:17:46;;;;;;;15.43;7.87;;;25.50;91.50;;;;;;4979773;28;20474;-73
2023/06/09 05:20:13;;;;;;;14.63;7.57;;;26.20;90.40;;;;;;4962717;28;20486;-74
2023/06/09 05:22:41;;;;;;;11.67;8.50;;;26.60;88.80;;;;;;4966507;28;20458;-74
2023/06/09 05:25:10;;;;;;;10.73;7.13;;;27.10;86.70;;;;;;4968099;28;20439;-74
2023/06/09 05:27:39;;;;;;;11.30;6.40;;;27.30;85.20;;;;;;4966365;28;20471;-73
2023/06/09 05:30:07;;;;;;;14.23;7.90;;;27.70;84.10;;;;;;4971219;28;20447;-74
2023/06/09 05:32:35;;;;;;;11.67;7.70;;;28.10;82.80;;;;;;4966301;28;20473;-72
2023/06/09 05:35:02;;;;;;;15.03;7.97;;;28.50;81.40;;;;;;4968041;28;20528;-75
2023/06/09 05:37:29;;;;;;;10.93;6.47;;;28.60;80.90;;;;;;4969509;28;20452;-73
2023/06/09 05:39:56;;;;;;;15.10;7.00;;;28.90;79.20;;;;;;4967999;28;20441;-73
2023/06/09 05:42:25;;;;;;;14.10;8.03;;;29.10;78.70;;;;;;4965349;28;20537;-71
2023/06/09 05:44:52;;;;;;;8.93;6.73;;;29.00;77.00;;;;;;4966848;28;20498;-74
2023/06/09 05:47:18;;;;;;;14.00;6.53;;;29.20;77.40;;;;;;4972670;28;20488;-73
2023/06/09 05:49:45;;;;;;;11.97;6.93;;;29.50;76.70;;;;;;4966249;28;20559;-73
2023/06/09 05:52:12;;;;;;;11.20;6.97;;;29.80;75.60;;;;;;4968663;28;20505;-74
2023/06/09 05:54:40;;;;;;;15.10;8.07;;;30.00;75.30;;;;;;4967178;28;20529;-74
2023/06/09 05:57:09;;;;;;;15.60;7.50;;;30.30;74.40;;;;;;4967518;28;20479;-74
2023/06/09 05:59:38;;;;;;;14.63;7.97;;;30.80;73.50;;;;;;4971512;28;20472;-72
2023/06/09 06:02:05;;;;;;;8.60;6.50;;;30.80;72.50;;;;;;4974573;28;20874;-75
2023/06/09 06:04:32;;;;;;;14.13;7.67;;;31.10;70.30;;;;;;4970404;28;20488;-71
2023/06/09 06:06:59;;;;;;;16.00;7.93;;;31.30;69.50;;;;;;4969450;28;20816;-73
2023/06/09 06:09:26;;;;;;;10.63;7.73;;;31.20;69.50;;;;;;4966838;28;20532;-73
2023/06/09 06:11:53;;;;;;;8.33;6.23;;;31.40;68.10;;;;;;4965573;28;20527;-72
2023/06/09 06:14:19;;;;;;;7.17;6.07;;;31.40;68.50;;;;;;4968562;28;20545;-72
2023/06/09 06:16:48;;;;;;;11.60;6.40;;;31.20;68.30;;;;;;4964543;28;20456;-74
2023/06/09 06:19:15;;;;;;;10.33;6.73;;;31.50;67.80;;;;;;4966130;28;20522;-74
2023/06/09 06:21:42;;;;;;;8.43;6.60;;;31.60;67.40;;;;;;4967542;28;20594;-73
2023/06/09 06:24:09;;;;;;;12.37;7.30;;;31.50;67.10;;;;;;4970298;28;20498;-73
2023/06/09 06:26:36;;;;;;;15.50;8.50;;;31.70;66.90;;;;;;4973386;28;20493;-74
2023/06/09 06:29:03;;;;;;;13.00;7.50;;;31.50;67.20;;;;;;4971012;28;20446;-73
2023/06/09 06:31:30;;;;;;;7.87;6.00;;;31.50;66.80;;;;;;4973641;28;20445;-74
2023/06/09 06:33:59;;;;;;;7.87;6.60;;;31.90;67.30;;;;;;4975428;28;20480;-72
2023/06/09 06:36:27;;;;;;;8.37;6.33;;;31.80;66.60;;;;;;4966395;28;20499;-73
2023/06/09 06:38:54;;;;;;;8.93;5.87;;;32.00;66.30;;;;;;4973713;28;20460;-72
2023/06/09 06:41:21;;;;;;;13.50;6.83;;;31.90;65.20;;;;;;4972944;28;20482;-72
2023/06/09 06:43:49;;;;;;;10.20;7.10;;;32.00;66.70;;;;;;4972962;28;20465;-74
2023/06/09 06:46:17;;;;;;;7.87;6.60;;;32.30;65.30;;;;;;4965479;28;20484;-72
2023/06/09 06:48:45;;;;;;;9.87;6.70;;;32.60;64.30;;;;;;4970750;28;20462;-74
2023/06/09 06:51:14;;;;;;;8.87;6.37;;;32.80;63.80;;;;;;4966522;28;20446;-73
2023/06/09 06:53:41;;;;;;;10.47;6.80;;;33.10;63.00;;;;;;4970447;28;20500;-72
2023/06/09 06:56:07;;;;;;;8.67;6.40;;;33.00;62.90;;;;;;4970556;28;20533;-75
2023/06/09 06:58:34;;;;;;;8.30;6.80;;;32.90;62.30;;;;;;4967376;28;20827;-73
2023/06/09 07:01:02;;;;;;;7.97;7.20;;;33.00;62.80;;;;;;4968684;28;20577;-71
2023/06/09 07:03:29;;;;;;;10.13;6.53;;;33.20;62.40;;;;;;4968126;28;20473;-74
2023/06/09 07:05:56;;;;;;;9.87;7.03;;;33.70;61.50;;;;;;4969732;28;20442;-73
2023/06/09 07:08:24;;;;;;;12.03;6.93;;;34.00;61.00;;;;;;4970972;28;20454;-74
2023/06/09 07:10:51;;;;;;;8.53;6.20;;;34.00;60.10;;;;;;4973914;28;20517;-69
2023/06/09 07:13:18;;;;;;;10.53;6.83;;;33.90;60.10;;;;;;4972908;28;20517;-71
2023/06/09 07:15:45;;;;;;;8.00;6.33;;;34.00;60.00;;;;;;4968248;28;20477;-73
2023/06/09 07:18:12;;;;;;;8.17;7.33;;;34.10;59.70;;;;;;4971522;28;21021;-73
2023/06/09 07:20:40;;;;;;;9.10;6.10;;;33.40;59.50;;;;;;4965280;28;20468;-74
2023/06/09 07:23:08;;;;;;;8.47;6.70;;;33.40;60.60;;;;;;4970850;28;20502;-73
2023/06/09 07:25:36;;;;;;;10.87;6.07;;;33.50;60.00;;;;;;4967728;28;20451;-74
2023/06/09 07:28:04;;;;;;;7.47;6.23;;;33.60;60.00;;;;;;4968830;28;20445;-73
2023/06/09 07:30:30;;;;;;;7.23;6.40;;;34.10;58.40;;;;;;4967299;28;20497;-73
2023/06/09 07:32:57;;;;;;;12.33;6.57;;;34.50;57.80;;;;;;4967305;28;20476;-71
2023/06/09 07:35:24;;;;;;;6.37;5.73;;;34.70;57.80;;;;;;4966499;28;20449;-73
2023/06/09 07:37:51;;;;;;;10.13;5.27;;;34.70;57.00;;;;;;4965847;28;20485;-74
2023/06/09 07:40:18;;;;;;;8.37;6.30;;;35.10;56.50;;;;;;4969124;28;20458;-74
2023/06/09 07:42:47;;;;;;;6.37;5.77;;;35.40;56.00;;;;;;4970066;28;20485;-73
2023/06/09 07:45:14;;;;;;;8.90;6.00;;;35.00;55.40;;;;;;4972652;28;20450;-72
2023/06/09 07:47:41;;;;;;;7.40;6.30;;;35.10;55.90;;;;;;4972127;28;20501;-72
2023/06/09 07:50:09;;;;;;;8.87;7.23;;;35.60;55.30;;;;;;4967129;28;20446;-72
2023/06/09 07:52:37;;;;;;;6.73;5.93;;;35.50;54.40;;;;;;4974803;28;20543;-73
2023/06/09 07:55:06;;;;;;;11.13;6.77;;;35.30;54.50;;;;;;4968127;28;20815;-74
2023/06/09 07:57:33;;;;;;;11.57;6.33;;;35.50;54.50;;;;;;4970827;28;20454;-73
2023/06/09 08:00:02;;;;;;;9.60;7.10;;;35.80;53.90;;;;;;4969993;28;20456;-74
2023/06/09 08:02:30;;;;;;;8.10;6.03;;;36.10;53.30;;;;;;4967681;28;20555;-73
2023/06/09 08:04:57;;;;;;;9.00;6.80;;;36.30;53.20;;;;;;4963294;28;20464;-71
2023/06/09 08:07:38;;;;;;;9.13;6.73;;;36.20;53.20;;;;;;4968371;28;20454;-79
2023/06/09 08:10:05;;;;;;;8.70;6.43;;;36.10;52.70;;;;;;4966762;28;20865;-78
2023/06/09 08:12:32;;;;;;;7.73;6.90;;;35.80;51.50;;;;;;4978784;28;20489;-74
2023/06/09 08:14:59;;;;;;;7.83;6.80;;;35.80;52.70;;;;;;4967814;28;20445;-73
2023/06/09 08:17:27;;;;;;;9.37;6.23;;;36.30;50.90;;;;;;4967731;28;20546;-72
2023/06/09 08:19:54;;;;;;;8.23;6.40;;;36.60;50.10;;;;;;4970589;28;20525;-72
2023/06/09 08:22:21;;;;;;;13.27;6.23;;;36.70;49.70;;;;;;4967960;28;20489;-74
2023/06/09 08:24:48;;;;;;;11.47;7.67;;;36.90;49.70;;;;;;4969648;28;20448;-74
2023/06/09 08:27:15;;;;;;;9.70;6.30;;;36.90;49.40;;;;;;4971284;28;20458;-73
2023/06/09 08:29:42;;;;;;;15.93;6.53;;;37.30;48.80;;;;;;4970691;28;20485;-73
2023/06/09 08:32:09;;;;;;;6.80;6.10;;;37.90;48.20;;;;;;4972665;28;20464;-74
2023/06/09 08:34:37;;;;;;;7.40;6.40;;;37.70;47.50;;;;;;4965949;28;20478;-73
2023/06/09 08:37:04;;;;;;;7.10;6.27;;;37.80;47.00;;;;;;4967685;28;20592;-74
2023/06/09 08:39:31;;;;;;;8.30;7.40;;;38.00;46.40;;;;;;4971636;28;20533;-73
2023/06/09 08:42:01;;;;;;;6.80;6.20;;;38.00;46.80;;;;;;4969017;28;20505;-72
2023/06/09 08:44:30;;;;;;;8.37;7.57;;;37.80;47.10;;;;;;4967940;28;20552;-73
2023/06/09 08:47:02;;;;;;;7.10;6.37;;;37.80;46.50;;;;;;4967810;28;20545;-73
2023/06/09 08:49:30;;;;;;;7.23;6.50;;;37.90;47.30;;;;;;4966448;28;20453;-73
2023/06/09 08:52:00;;;;;;;7.80;6.10;;;38.10;46.90;;;;;;4965474;28;21088;-72
2023/06/09 08:54:28;;;;;;;8.20;5.83;;;37.60;47.20;;;;;;4966151;28;20445;-73
2023/06/09 08:56:55;;;;;;;8.50;7.60;;;37.90;46.20;;;;;;4965721;28;20493;-73
2023/06/09 08:59:23;;;;;;;9.80;7.10;;;37.90;46.90;;;;;;4973925;28;20928;-73
2023/06/09 09:01:50;;;;;;;8.23;7.10;;;37.90;47.00;;;;;;4968684;28;20883;-73
2023/06/09 09:04:18;;;;;;;7.20;6.03;;;37.90;44.80;;;;;;4971177;28;20468;-73
2023/06/09 09:06:45;;;;;;;8.50;7.50;;;38.00;45.30;;;;;;4971946;28;20524;-73
2023/06/09 09:09:14;;;;;;;12.83;8.63;;;38.00;44.90;;;;;;4969135;28;20442;-74
2023/06/09 09:11:41;;;;;;;7.17;6.17;;;38.30;44.50;;;;;;4966322;28;20474;-73
2023/06/09 09:14:13;;;;;;;7.10;6.50;;;38.30;44.70;;;;;;4964767;28;20524;-72
2023/06/09 09:16:41;;;;;;;7.23;6.47;;;38.40;44.40;;;;;;4962918;28;20877;-72
2023/06/09 09:19:08;;;;;;;7.27;6.60;;;38.40;43.50;;;;;;4970015;28;20525;-72
2023/06/09 09:21:37;;;;;;;13.30;7.63;;;38.50;42.60;;;;;;4972048;28;20572;-74
2023/06/09 09:24:06;;;;;;;10.47;6.40;;;38.10;43.60;;;;;;4967309;28;20471;-73
2023/06/09 09:26:34;;;;;;;10.47;7.50;;;38.20;44.60;;;;;;4978018;28;20442;-72
2023/06/09 09:29:04;;;;;;;7.43;6.70;;;37.90;45.50;;;;;;4972165;28;20499;-73
2023/06/09 09:31:33;;;;;;;8.23;6.53;;;37.40;45.30;;;;;;4961406;28;20463;-74
2023/06/09 09:34:01;;;;;;;9.83;6.47;;;37.40;46.00;;;;;;4966832;28;20833;-74
2023/06/09 09:36:29;;;;;;;10.30;8.50;;;37.40;46.60;;;;;;4963945;28;20445;-74
2023/06/09 09:38:57;;;;;;;8.17;7.37;;;37.60;45.70;;;;;;4969400;28;20442;-74
2023/06/09 09:41:25;;;;;;;7.30;6.50;;;37.30;46.00;;;;;;4961890;28;20450;-74
2023/06/09 09:43:59;;;;;;;6.77;6.17;;;37.50;45.50;;;;;;4967829;28;21153;-72
2023/06/09 09:46:26;;;;;;;8.07;7.17;;;37.10;45.40;;;;;;4978223;28;20441;-73
2023/06/09 09:48:54;;;;;;;9.10;6.33;;;36.50;46.60;;;;;;4965794;28;20458;-73
2023/06/09 09:51:22;;;;;;;9.53;6.80;;;36.50;46.50;;;;;;4965950;28;20450;-73
2023/06/09 09:53:51;;;;;;;11.30;6.97;;;36.00;46.30;;;;;;4971296;28;20473;-71
2023/06/09 09:56:22;;;;;;;8.70;6.93;;;35.70;47.80;;;;;;4965971;28;20454;-72
2023/06/09 09:58:53;;;;;;;7.73;6.50;;;35.80;46.50;;;;;;4972987;28;20999;-72
2023/06/09 10:01:24;;;;;;;7.27;6.43;;;35.60;46.80;;;;;;4975960;28;20537;-73
2023/06/09 10:03:54;;;;;;;7.47;6.77;;;35.70;47.40;;;;;;4971997;28;20797;-73
2023/06/09 10:06:27;;;;;;;7.17;6.47;;;35.50;46.60;;;;;;4970302;28;20458;-73
2023/06/09 10:08:55;;;;;;;7.53;6.17;;;35.40;46.30;;;;;;4969109;28;20870;-74
2023/06/09 10:11:23;;;;;;;6.97;6.17;;;35.10;47.00;;;;;;4970283;28;20508;-72
2023/06/09 10:13:51;;;;;;;13.10;8.20;;;35.40;47.40;;;;;;4967709;28;20470;-74
2023/06/09 10:16:20;;;;;;;7.43;6.10;;;35.50;47.70;;;;;;4964618;28;20454;-73
2023/06/09 10:18:49;;;;;;;7.53;5.80;;;35.80;46.10;;;;;;4971761;28;20532;-74
2023/06/09 10:21:17;;;;;;;8.10;6.70;;;35.60;47.10;;;;;;4970328;28;20535;-71
2023/06/09 10:23:44;;;;;;;6.70;6.10;;;35.50;46.90;;;;;;4963749;28;20560;-74
2023/06/09 10:26:11;;;;;;;7.87;6.00;;;35.50;46.60;;;;;;4967891;28;20921;-74
2023/06/09 10:28:38;;;;;;;9.17;6.90;;;35.50;47.00;;;;;;4973459;28;20521;-74
2023/06/09 10:31:09;;;;;;;6.97;6.27;;;35.30;46.90;;;;;;4967011;28;20958;-72
2023/06/09 10:33:41;;;;;;;7.73;6.30;;;34.70;46.70;;;;;;4972793;28;20493;-74
2023/06/09 10:36:10;;;;;;;6.40;5.80;;;34.60;47.30;;;;;;4971029;28;20871;-72
2023/06/09 10:38:42;;;;;;;10.43;5.60;;;34.40;46.30;;;;;;4970911;28;20458;-74
2023/06/09 10:41:15;;;;;;;6.70;6.10;;;33.70;46.70;;;;;;4971103;28;20450;-74
2023/06/09 10:44:18;;;;;;;6.83;5.60;;;33.20;47.40;;;;;;4969936;28;20516;-73
2023/06/09 10:46:47;;;;;;;5.73;5.23;;;32.90;47.60;;;;;;4969549;28;20456;-73
2023/06/09 10:49:39;;;;;;;6.27;5.20;;;32.80;46.80;;;;;;4968432;28;20442;-72
2023/06/09 10:52:10;;;;;;;8.73;6.20;;;32.50;47.20;;;;;;4973208;28;20483;-74
2023/06/09 10:54:37;;;;;;;6.57;5.83;;;32.00;48.60;;;;;;4971400;28;20850;-73
2023/06/09 10:57:06;;;;;;;7.27;6.57;;;31.50;49.30;;;;;;4966506;28;20929;-73
2023/06/09 11:00:09;;;;;;;7.70;7.00;;;31.50;50.10;;;;;;4972259;28;20794;-72
2023/06/09 11:02:36;;;;;;;6.70;5.10;;;31.50;50.10;;;;;;4965634;28;20573;-74
2023/06/09 11:05:04;;;;;;;7.10;6.13;;;31.70;49.70;;;;;;4971088;28;21101;-74
2023/06/09 11:07:41;;;;;;;5.90;5.30;;;31.80;49.40;;;;;;4967300;28;20837;-73
2023/06/09 11:10:36;;;;;;;8.10;5.43;;;31.80;48.70;;;;;;4971674;28;20460;-71
2023/06/09 11:13:24;;;;;;;7.93;5.17;;;31.80;47.70;;;;;;4971419;28;20461;-73
2023/06/09 11:16:01;;;;;;;7.30;5.20;;;31.70;47.70;;;;;;4968877;28;20462;-73
2023/06/09 11:18:31;;;;;;;8.33;7.00;;;31.70;47.70;;;;;;4975805;28;20450;-73
2023/06/09 11:21:16;;;;;;;6.47;5.30;;;31.70;48.50;;;;;;4968000;28;20478;-74
2023/06/09 11:24:03;;;;;;;6.83;5.80;;;31.70;47.80;;;;;;4970989;28;20504;-72
2023/06/09 11:26:32;;;;;;;5.60;5.10;;;31.50;47.80;;;;;;4967255;28;20541;-74
2023/06/09 11:29:02;;;;;;;6.50;5.90;;;31.40;48.30;;;;;;4969882;28;20802;-74
2023/06/09 11:31:29;;;;;;;11.80;6.43;;;31.40;49.00;;;;;;4970099;28;20529;-74
2023/06/09 11:33:57;;;;;;;9.80;6.67;;;31.40;49.30;;;;;;4976734;28;20469;-74
2023/06/09 11:36:27;;;;;;;6.47;5.87;;;31.40;49.30;;;;;;4974522;28;20959;-74
2023/06/09 11:39:04;;;;;;;7.33;6.23;;;31.40;48.20;;;;;;4968774;28;20449;-72
2023/06/09 11:41:34;;;;;;;7.57;6.87;;;31.30;48.00;;;;;;4968899;28;20446;-75
2023/06/09 11:44:01;;;;;;;7.27;6.57;;;31.30;48.50;;;;;;4970479;28;20584;-72
2023/06/09 11:46:28;;;;;;;6.37;5.40;;;31.30;47.90;;;;;;4974843;28;20545;-72
2023/06/09 11:49:07;;;;;;;8.00;5.87;;;31.20;48.10;;;;;;4985026;28;20961;-71
2023/06/09 11:52:06;;;;;;;6.33;5.73;;;31.00;48.30;;;;;;4978240;28;20469;-75
2023/06/09 11:54:47;;;;;;;6.20;5.50;;;30.40;47.90;;;;;;4918689;28;20893;-72
2023/06/09 11:57:16;;;;;;;7.80;5.37;;;30.30;48.80;;;;;;4969395;28;20442;-73
2023/06/09 11:59:44;;;;;;;7.77;6.20;;;30.40;49.90;;;;;;4972306;28;20442;-75
2023/06/09 12:02:13;;;;;;;7.13;5.07;;;30.40;49.60;;;;;;4965231;28;20472;-73
2023/06/09 12:04:41;;;;;;;5.77;5.17;;;30.40;49.50;;;;;;4970339;28;20506;-74
2023/06/09 12:07:14;;;;;;;9.00;6.10;;;30.50;48.90;;;;;;4971143;28;20442;-73
2023/06/09 12:09:42;;;;;;;6.60;5.93;;;30.40;48.90;;;;;;4967661;28;20438;-74
2023/06/09 12:12:11;;;;;;;7.13;5.77;;;30.40;48.50;;;;;;4965094;28;20981;-75
2023/06/09 12:14:38;;;;;;;5.97;5.47;;;30.40;48.40;;;;;;4972907;28;20451;-72
2023/06/09 12:17:06;;;;;;;8.20;5.90;;;30.50;48.70;;;;;;4970119;28;20446;-74
2023/06/09 12:19:33;;;;;;;6.47;5.80;;;30.50;48.00;;;;;;4970166;28;20454;-73
2023/06/09 12:22:02;;;;;;;7.77;5.50;;;30.30;48.50;;;;;;4971901;28;20505;-73
2023/06/09 12:24:31;;;;;;;6.37;5.77;;;30.10;48.60;;;;;;4966899;28;20928;-71
2023/06/09 12:26:58;;;;;;;6.47;5.93;;;30.10;49.10;;;;;;4967752;28;20504;-73
2023/06/09 12:29:27;;;;;;;7.30;5.90;;;30.20;48.80;;;;;;4967283;28;20876;-74
2023/06/09 12:31:54;;;;;;;6.60;6.00;;;30.20;48.30;;;;;;4966934;28;20472;-73
2023/06/09 12:34:23;;;;;;;7.43;6.73;;;30.20;48.60;;;;;;4965029;28;20445;-72
2023/06/09 12:36:52;;;;;;;6.80;6.17;;;30.20;48.30;;;;;;4969241;28;20493;-74
2023/06/09 12:39:19;;;;;;;8.30;6.07;;;30.10;47.70;;;;;;4964594;28;20536;-72
2023/06/09 12:41:46;;;;;;;6.27;5.70;;;30.10;48.40;;;;;;4969913;28;20449;-71
2023/06/09 12:44:23;;;;;;;5.90;5.30;;;30.10;48.10;;;;;;4965700;28;20661;-72
2023/06/09 12:46:55;;;;;;;11.10;7.17;;;30.00;47.70;;;;;;4960564;28;20442;-75
2023/06/09 12:49:31;;;;;;;10.50;6.10;;;29.90;48.10;;;;;;4966812;28;20473;-75